Fronteiras, Brazil
Current Conditions -  °F | °C
As of 2:00 PM on Monday 24 Nov 2014 (Local Time) from SBJU Reporting Station
Scattered Clouds Scattered Clouds  
Wind Chill: 95°   Ceiling: Unl
Heat Index: 96°   Visibility: 6mi
Dew Point: 63°   Wind: 9mph
Humidity: 34%   Direction: 90°E
Pressure: 29.94"   Gusts: NA
Location:  7.09°S, 40.62°W
Report Text: SBJU 241700Z 09008KT 9999 SCT022 35/17 Q1014
Loading
Personal Weather Stations






























Interactive Weather Map New forecast layout! Learn more

10-Day Weather Forecast

Advertisements
Track Severe Weather on mobile